sensor_id;sensor_type;location;lat;lon;timestamp;pressure;altitude;pressure_sealevel;temperature;humidity
54872;BME280;43914;57.680;11.982;2024-03-23T00:54:24;99239.77;;;4.12;100.00
54872;BME280;43914;57.680;11.982;2024-03-23T00:56:50;99239.30;;;4.10;100.00
54872;BME280;43914;57.680;11.982;2024-03-23T00:59:15;99235.09;;;4.08;100.00
54872;BME280;43914;57.680;11.982;2024-03-23T01:01:41;99232.25;;;4.04;100.00
54872;BME280;43914;57.680;11.982;2024-03-23T01:04:06;99229.27;;;4.04;100.00
54872;BME280;43914;57.680;11.982;2024-03-23T01:06:31;99229.15;;;4.05;100.00
54872;BME280;43914;57.680;11.982;2024-03-23T01:08:57;99222.00;;;4.06;100.00
54872;BME280;43914;57.680;11.982;2024-03-23T01:11:22;99221.58;;;4.07;100.00
54872;BME280;43914;57.680;11.982;2024-03-23T01:13:48;99214.23;;;4.07;100.00
54872;BME280;43914;57.680;11.982;2024-03-23T01:16:13;99212.86;;;4.09;100.00
54872;BME280;43914;57.680;11.982;2024-03-23T01:18:39;99213.23;;;4.08;100.00
54872;BME280;43914;57.680;11.982;2024-03-23T01:21:04;99212.05;;;4.06;100.00
54872;BME280;43914;57.680;11.982;2024-03-23T01:23:29;99211.91;;;4.06;100.00
54872;BME280;43914;57.680;11.982;2024-03-23T01:25:55;99204.77;;;4.05;100.00
54872;BME280;43914;57.680;11.982;2024-03-23T01:28:21;99207.20;;;4.03;100.00
54872;BME280;43914;57.680;11.982;2024-03-23T01:30:47;99201.85;;;4.02;100.00
54872;BME280;43914;57.680;11.982;2024-03-23T01:33:13;99200.34;;;4.01;100.00
54872;BME280;43914;57.680;11.982;2024-03-23T01:35:39;99199.39;;;4.01;100.00
54872;BME280;43914;57.680;11.982;2024-03-23T01:38:04;99200.23;;;3.98;100.00
54872;BME280;43914;57.680;11.982;2024-03-23T01:40:30;99190.61;;;3.94;100.00
54872;BME280;43914;57.680;11.982;2024-03-23T01:43:03;99192.48;;;3.93;100.00
54872;BME280;43914;57.680;11.982;2024-03-23T01:45:30;99186.73;;;3.92;100.00
54872;BME280;43914;57.680;11.982;2024-03-23T01:47:56;99183.90;;;3.90;100.00
54872;BME280;43914;57.680;11.982;2024-03-23T01:50:22;99181.09;;;3.87;100.00
54872;BME280;43914;57.680;11.982;2024-03-23T01:52:50;99175.78;;;3.83;100.00
54872;BME280;43914;57.680;11.982;2024-03-23T01:55:16;99172.65;;;3.78;100.00
54872;BME280;43914;57.680;11.982;2024-03-23T01:57:42;99166.30;;;3.74;100.00
54872;BME280;43914;57.680;11.982;2024-03-23T02:00:08;99165.74;;;3.71;100.00
54872;BME280;43914;57.680;11.982;2024-03-23T02:02:44;99164.48;;;3.67;100.00
54872;BME280;43914;57.680;11.982;2024-03-23T02:05:11;99162.88;;;3.62;100.00
54872;BME280;43914;57.680;11.982;2024-03-23T02:07:41;99161.29;;;3.56;100.00
54872;BME280;43914;57.680;11.982;2024-03-23T02:10:09;99161.90;;;3.49;100.00
54872;BME280;43914;57.680;11.982;2024-03-23T02:12:36;99154.73;;;3.44;100.00
54872;BME280;43914;57.680;11.982;2024-03-23T02:15:02;99155.36;;;3.40;100.00
54872;BME280;43914;57.680;11.982;2024-03-23T02:17:29;99154.70;;;3.36;100.00
54872;BME280;43914;57.680;11.982;2024-03-23T02:19:55;99149.04;;;3.33;100.00
54872;BME280;43914;57.680;11.982;2024-03-23T02:22:21;99150.42;;;3.30;100.00
54872;BME280;43914;57.680;11.982;2024-03-23T02:24:46;99145.15;;;3.28;100.00
54872;BME280;43914;57.680;11.982;2024-03-23T02:27:12;99141.74;;;3.27;100.00
54872;BME280;43914;57.680;11.982;2024-03-23T02:29:37;99138.73;;;3.24;100.00
54872;BME280;43914;57.680;11.982;2024-03-23T02:32:03;99135.85;;;3.23;100.00
54872;BME280;43914;57.680;11.982;2024-03-23T02:34:28;99134.55;;;3.21;100.00
54872;BME280;43914;57.680;11.982;2024-03-23T02:36:54;99133.35;;;3.20;100.00
54872;BME280;43914;57.680;11.982;2024-03-23T02:39:19;99133.05;;;3.21;100.00
54872;BME280;43914;57.680;11.982;2024-03-23T02:41:45;99132.13;;;3.20;100.00
54872;BME280;43914;57.680;11.982;2024-03-23T02:44:10;99130.64;;;3.19;100.00
54872;BME280;43914;57.680;11.982;2024-03-23T02:46:38;99128.86;;;3.17;100.00
54872;BME280;43914;57.680;11.982;2024-03-23T02:49:03;99133.13;;;3.16;100.00
54872;BME280;43914;57.680;11.982;2024-03-23T02:51:30;99131.21;;;3.14;100.00
54872;BME280;43914;57.680;11.982;2024-03-23T02:53:55;99129.20;;;3.16;100.00
54872;BME280;43914;57.680;11.982;2024-03-23T02:56:21;99127.77;;;3.16;100.00
54872;BME280;43914;57.680;11.982;2024-03-23T02:58:46;99125.80;;;3.13;100.00
54872;BME280;43914;57.680;11.982;2024-03-23T03:01:12;99119.80;;;3.13;100.00
54872;BME280;43914;57.680;11.982;2024-03-23T03:03:37;99118.43;;;3.14;100.00
54872;BME280;43914;57.680;11.982;2024-03-23T03:06:03;99114.74;;;3.15;100.00
54872;BME280;43914;57.680;11.982;2024-03-23T03:08:29;99107.90;;;3.16;100.00
54872;BME280;43914;57.680;11.982;2024-03-23T03:10:55;99103.64;;;3.18;100.00
54872;BME280;43914;57.680;11.982;2024-03-23T03:13:20;99102.27;;;3.18;100.00
54872;BME280;43914;57.680;11.982;2024-03-23T03:15:46;99093.59;;;3.16;100.00
54872;BME280;43914;57.680;11.982;2024-03-23T03:18:12;99092.56;;;3.16;100.00
54872;BME280;43914;57.680;11.982;2024-03-23T03:20:40;99088.13;;;3.16;100.00
54872;BME280;43914;57.680;11.982;2024-03-23T03:23:06;99089.53;;;3.17;100.00
54872;BME280;43914;57.680;11.982;2024-03-23T03:25:31;99088.86;;;3.19;100.00
54872;BME280;43914;57.680;11.982;2024-03-23T03:27:57;99083.98;;;3.20;100.00
54872;BME280;43914;57.680;11.982;2024-03-23T03:30:22;99077.90;;;3.21;100.00
54872;BME280;43914;57.680;11.982;2024-03-23T03:32:49;99071.70;;;3.21;100.00
54872;BME280;43914;57.680;11.982;2024-03-23T03:35:15;99068.77;;;3.20;100.00
54872;BME280;43914;57.680;11.982;2024-03-23T03:37:40;99062.98;;;3.17;100.00
54872;BME280;43914;57.680;11.982;2024-03-23T03:40:06;99059.91;;;3.17;100.00
54872;BME280;43914;57.680;11.982;2024-03-23T03:42:34;99056.66;;;3.13;100.00
54872;BME280;43914;57.680;11.982;2024-03-23T03:45:00;99051.11;;;3.09;100.00
54872;BME280;43914;57.680;11.982;2024-03-23T03:47:25;99047.84;;;3.03;100.00
54872;BME280;43914;57.680;11.982;2024-03-23T03:49:51;99048.59;;;3.00;100.00
54872;BME280;43914;57.680;11.982;2024-03-23T03:52:16;99048.25;;;2.96;100.00
54872;BME280;43914;57.680;11.982;2024-03-23T03:54:42;99047.91;;;2.95;100.00
54872;BME280;43914;57.680;11.982;2024-03-23T03:57:07;99043.92;;;2.94;100.00
54872;BME280;43914;57.680;11.982;2024-03-23T03:59:32;99042.65;;;2.94;100.00
54872;BME280;43914;57.680;11.982;2024-03-23T04:01:58;99045.46;;;2.95;100.00
54872;BME280;43914;57.680;11.982;2024-03-23T04:04:23;99042.23;;;2.94;100.00
54872;BME280;43914;57.680;11.982;2024-03-23T04:06:49;99041.83;;;2.93;100.00
54872;BME280;43914;57.680;11.982;2024-03-23T04:09:14;99041.07;;;2.93;100.00
54872;BME280;43914;57.680;11.982;2024-03-23T04:11:40;99036.38;;;2.91;100.00
54872;BME280;43914;57.680;11.982;2024-03-23T04:14:05;99035.84;;;2.87;100.00
54872;BME280;43914;57.680;11.982;2024-03-23T04:16:34;99033.39;;;2.85;100.00
54872;BME280;43914;57.680;11.982;2024-03-23T04:19:01;99033.89;;;2.86;100.00
54872;BME280;43914;57.680;11.982;2024-03-23T04:21:26;99033.98;;;2.86;100.00
54872;BME280;43914;57.680;11.982;2024-03-23T04:23:52;99033.44;;;2.85;100.00
54872;BME280;43914;57.680;11.982;2024-03-23T04:26:17;99024.67;;;2.80;100.00
54872;BME280;43914;57.680;11.982;2024-03-23T04:28:43;99021.23;;;2.77;100.00
54872;BME280;43914;57.680;11.982;2024-03-23T04:31:09;99020.18;;;2.76;100.00
54872;BME280;43914;57.680;11.982;2024-03-23T04:33:34;99015.77;;;2.74;100.00
54872;BME280;43914;57.680;11.982;2024-03-23T04:36:00;99010.22;;;2.70;100.00
54872;BME280;43914;57.680;11.982;2024-03-23T04:38:25;99010.73;;;2.67;100.00
54872;BME280;43914;57.680;11.982;2024-03-23T04:40:58;99007.54;;;2.66;100.00
54872;BME280;43914;57.680;11.982;2024-03-23T04:43:25;99000.56;;;2.66;100.00
54872;BME280;43914;57.680;11.982;2024-03-23T04:45:51;98999.89;;;2.66;100.00
54872;BME280;43914;57.680;11.982;2024-03-23T04:48:19;98999.44;;;2.65;100.00
54872;BME280;43914;57.680;11.982;2024-03-23T04:50:44;98999.80;;;2.65;100.00
54872;BME280;43914;57.680;11.982;2024-03-23T04:53:10;99004.52;;;2.66;100.00
54872;BME280;43914;57.680;11.982;2024-03-23T04:55:35;99002.69;;;2.65;100.00
54872;BME280;43914;57.680;11.982;2024-03-23T04:58:01;99000.58;;;2.63;100.00
54872;BME280;43914;57.680;11.982;2024-03-23T05:00:26;98999.45;;;2.62;100.00
54872;BME280;43914;57.680;11.982;2024-03-23T05:02:52;99001.43;;;2.63;100.00
54872;BME280;43914;57.680;11.982;2024-03-23T05:05:18;99002.15;;;2.65;100.00
54872;BME280;43914;57.680;11.982;2024-03-23T05:07:43;99001.11;;;2.63;100.00
54872;BME280;43914;57.680;11.982;2024-03-23T05:10:09;98998.33;;;2.63;100.00
54872;BME280;43914;57.680;11.982;2024-03-23T05:12:40;99002.15;;;2.62;100.00
54872;BME280;43914;57.680;11.982;2024-03-23T05:15:06;99000.26;;;2.58;100.00
54872;BME280;43914;57.680;11.982;2024-03-23T05:17:33;98996.57;;;2.58;100.00
54872;BME280;43914;57.680;11.982;2024-03-23T05:19:59;98994.45;;;2.61;100.00
54872;BME280;43914;57.680;11.982;2024-03-23T05:22:25;98993.23;;;2.64;100.00
54872;BME280;43914;57.680;11.982;2024-03-23T05:24:53;98995.32;;;2.69;100.00
54872;BME280;43914;57.680;11.982;2024-03-23T05:27:18;98991.32;;;2.74;100.00
54872;BME280;43914;57.680;11.982;2024-03-23T05:29:44;98991.02;;;2.80;100.00
54872;BME280;43914;57.680;11.982;2024-03-23T05:32:09;98988.71;;;2.86;100.00
54872;BME280;43914;57.680;11.982;2024-03-23T05:34:35;98987.45;;;2.91;100.00
54872;BME280;43914;57.680;11.982;2024-03-23T05:37:00;98982.89;;;2.97;100.00
54872;BME280;43914;57.680;11.982;2024-03-23T05:39:26;98984.01;;;3.03;100.00
54872;BME280;43914;57.680;11.982;2024-03-23T05:41:51;98981.10;;;3.08;100.00
54872;BME280;43914;57.680;11.982;2024-03-23T05:44:16;98981.60;;;3.13;100.00
54872;BME280;43914;57.680;11.982;2024-03-23T05:46:42;98980.33;;;3.18;100.00
54872;BME280;43914;57.680;11.982;2024-03-23T05:49:08;98981.70;;;3.23;100.00
54872;BME280;43914;57.680;11.982;2024-03-23T05:51:34;98977.68;;;3.27;100.00
54872;BME280;43914;57.680;11.982;2024-03-23T05:53:59;98980.78;;;3.31;100.00
54872;BME280;43914;57.680;11.982;2024-03-23T05:56:26;98980.04;;;3.34;100.00
54872;BME280;43914;57.680;11.982;2024-03-23T05:58:52;98979.02;;;3.40;100.00
54872;BME280;43914;57.680;11.982;2024-03-23T06:01:17;98973.47;;;3.45;100.00
54872;BME280;43914;57.680;11.982;2024-03-23T06:03:42;98972.26;;;3.49;100.00
54872;BME280;43914;57.680;11.982;2024-03-23T06:06:09;98961.36;;;3.53;100.00
54872;BME280;43914;57.680;11.982;2024-03-23T06:08:37;98963.93;;;3.58;100.00
54872;BME280;43914;57.680;11.982;2024-03-23T06:11:04;98959.37;;;3.62;100.00
54872;BME280;43914;57.680;11.982;2024-03-23T06:13:31;98956.64;;;3.66;100.00
54872;BME280;43914;57.680;11.982;2024-03-23T06:15:56;98953.88;;;3.71;100.00
54872;BME280;43914;57.680;11.982;2024-03-23T06:18:22;98950.52;;;3.76;100.00
54872;BME280;43914;57.680;11.982;2024-03-23T06:20:47;98945.52;;;3.79;100.00
54872;BME280;43914;57.680;11.982;2024-03-23T06:23:13;98948.05;;;3.82;100.00
54872;BME280;43914;57.680;11.982;2024-03-23T06:25:40;98947.02;;;3.84;100.00
54872;BME280;43914;57.680;11.982;2024-03-23T06:28:05;98946.51;;;3.86;100.00
54872;BME280;43914;57.680;11.982;2024-03-23T06:30:31;98944.81;;;3.88;100.00
54872;BME280;43914;57.680;11.982;2024-03-23T06:32:57;98942.21;;;3.89;100.00
54872;BME280;43914;57.680;11.982;2024-03-23T06:35:22;98942.08;;;3.88;100.00
54872;BME280;43914;57.680;11.982;2024-03-23T06:37:48;98944.54;;;3.90;100.00
54872;BME280;43914;57.680;11.982;2024-03-23T06:40:14;98947.39;;;3.90;100.00
54872;BME280;43914;57.680;11.982;2024-03-23T06:42:39;98946.59;;;3.89;100.00
54872;BME280;43914;57.680;11.982;2024-03-23T06:45:06;98945.73;;;3.91;100.00
54872;BME280;43914;57.680;11.982;2024-03-23T06:47:31;98943.64;;;3.90;100.00
54872;BME280;43914;57.680;11.982;2024-03-23T06:49:58;98939.52;;;3.89;100.00
54872;BME280;43914;57.680;11.982;2024-03-23T06:52:24;98940.38;;;3.89;100.00
54872;BME280;43914;57.680;11.982;2024-03-23T06:54:49;98947.04;;;3.95;100.00
54872;BME280;43914;57.680;11.982;2024-03-23T06:57:15;98944.63;;;4.00;100.00
54872;BME280;43914;57.680;11.982;2024-03-23T06:59:40;98941.41;;;4.05;100.00
54872;BME280;43914;57.680;11.982;2024-03-23T07:02:06;98946.96;;;4.07;100.00
54872;BME280;43914;57.680;11.982;2024-03-23T07:04:34;98945.42;;;4.08;100.00
54872;BME280;43914;57.680;11.982;2024-03-23T07:07:00;98937.36;;;4.04;100.00
54872;BME280;43914;57.680;11.982;2024-03-23T07:09:28;98939.66;;;4.04;100.00
54872;BME280;43914;57.680;11.982;2024-03-23T07:11:54;98943.20;;;4.09;100.00
54872;BME280;43914;57.680;11.982;2024-03-23T07:14:21;98944.35;;;4.11;100.00
54872;BME280;43914;57.680;11.982;2024-03-23T07:16:47;98941.22;;;4.12;100.00
54872;BME280;43914;57.680;11.982;2024-03-23T07:19:14;98946.52;;;4.17;100.00
54872;BME280;43914;57.680;11.982;2024-03-23T07:21:42;98944.94;;;4.22;100.00
54872;BME280;43914;57.680;11.982;2024-03-23T07:24:07;98940.30;;;4.29;100.00
54872;BME280;43914;57.680;11.982;2024-03-23T07:26:33;98941.54;;;4.37;100.00
54872;BME280;43914;57.680;11.982;2024-03-23T07:28:58;98940.25;;;4.44;100.00
54872;BME280;43914;57.680;11.982;2024-03-23T07:31:23;98938.97;;;4.48;100.00
54872;BME280;43914;57.680;11.982;2024-03-23T07:33:50;98936.89;;;4.52;100.00
54872;BME280;43914;57.680;11.982;2024-03-23T07:36:16;98932.73;;;4.56;100.00
54872;BME280;43914;57.680;11.982;2024-03-23T07:38:42;98927.92;;;4.65;100.00
54872;BME280;43914;57.680;11.982;2024-03-23T07:41:11;98928.05;;;4.74;100.00
54872;BME280;43914;57.680;11.982;2024-03-23T07:43:40;98928.48;;;4.81;100.00
54872;BME280;43914;57.680;11.982;2024-03-23T07:46:06;98924.14;;;4.82;100.00
54872;BME280;43914;57.680;11.982;2024-03-23T07:48:32;98920.39;;;4.87;100.00
54872;BME280;43914;57.680;11.982;2024-03-23T07:53:27;98922.01;;;5.01;100.00
54872;BME280;43914;57.680;11.982;2024-03-23T07:56:05;98918.19;;;5.05;100.00
54872;BME280;43914;57.680;11.982;2024-03-23T07:58:31;98918.95;;;5.09;100.00
54872;BME280;43914;57.680;11.982;2024-03-23T08:01:12;98914.83;;;5.12;100.00
54872;BME280;43914;57.680;11.982;2024-03-23T08:03:41;98915.53;;;5.13;100.00
54872;BME280;43914;57.680;11.982;2024-03-23T08:06:11;98915.25;;;5.13;100.00
54872;BME280;43914;57.680;11.982;2024-03-23T08:08:38;98916.89;;;5.14;100.00
54872;BME280;43914;57.680;11.982;2024-03-23T08:11:04;98909.12;;;5.20;100.00
54872;BME280;43914;57.680;11.982;2024-03-23T08:13:30;98912.06;;;5.19;100.00
54872;BME280;43914;57.680;11.982;2024-03-23T08:15:57;98911.20;;;5.19;100.00
54872;BME280;43914;57.680;11.982;2024-03-23T08:18:23;98906.98;;;5.19;100.00
54872;BME280;43914;57.680;11.982;2024-03-23T08:21:09;98903.72;;;5.17;100.00
54872;BME280;43914;57.680;11.982;2024-03-23T08:23:35;98902.59;;;5.26;100.00
54872;BME280;43914;57.680;11.982;2024-03-23T08:26:11;98901.85;;;5.32;100.00
54872;BME280;43914;57.680;11.982;2024-03-23T08:28:37;98904.50;;;5.36;100.00
54872;BME280;43914;57.680;11.982;2024-03-23T08:31:13;98899.05;;;5.44;100.00
54872;BME280;43914;57.680;11.982;2024-03-23T08:33:40;98896.21;;;5.48;100.00
54872;BME280;43914;57.680;11.982;2024-03-23T08:36:08;98898.58;;;5.56;100.00
54872;BME280;43914;57.680;11.982;2024-03-23T08:38:35;98898.77;;;5.70;100.00
54872;BME280;43914;57.680;11.982;2024-03-23T08:41:03;98895.52;;;5.76;100.00
54872;BME280;43914;57.680;11.982;2024-03-23T08:43:30;98894.80;;;5.79;100.00
54872;BME280;43914;57.680;11.982;2024-03-23T08:46:05;98898.70;;;5.90;100.00
54872;BME280;43914;57.680;11.982;2024-03-23T08:48:32;98899.54;;;6.04;100.00
54872;BME280;43914;57.680;11.982;2024-03-23T08:51:05;98900.48;;;6.19;100.00
54872;BME280;43914;57.680;11.982;2024-03-23T08:53:32;98904.95;;;6.26;100.00
54872;BME280;43914;57.680;11.982;2024-03-23T08:55:58;98907.45;;;6.31;100.00
54872;BME280;43914;57.680;11.982;2024-03-23T08:58:25;98907.14;;;6.37;100.00
54872;BME280;43914;57.680;11.982;2024-03-23T09:00:51;98908.36;;;6.37;100.00
54872;BME280;43914;57.680;11.982;2024-03-23T09:03:17;98906.18;;;6.32;100.00
54872;BME280;43914;57.680;11.982;2024-03-23T09:05:42;98909.38;;;6.30;100.00
54872;BME280;43914;57.680;11.982;2024-03-23T09:08:08;98909.30;;;6.29;100.00
54872;BME280;43914;57.680;11.982;2024-03-23T09:10:41;98907.54;;;6.32;100.00
54872;BME280;43914;57.680;11.982;2024-03-23T09:13:06;98908.40;;;6.31;100.00
54872;BME280;43914;57.680;11.982;2024-03-23T09:15:36;98908.23;;;6.28;100.00
54872;BME280;43914;57.680;11.982;2024-03-23T09:18:02;98906.16;;;6.25;100.00
54872;BME280;43914;57.680;11.982;2024-03-23T09:20:28;98909.59;;;6.17;100.00
54872;BME280;43914;57.680;11.982;2024-03-23T09:22:54;98906.35;;;6.11;100.00
54872;BME280;43914;57.680;11.982;2024-03-23T09:25:19;98905.61;;;6.05;100.00
54872;BME280;43914;57.680;11.982;2024-03-23T09:27:48;98906.60;;;6.05;100.00
54872;BME280;43914;57.680;11.982;2024-03-23T09:30:14;98899.99;;;5.98;100.00
54872;BME280;43914;57.680;11.982;2024-03-23T09:32:43;98898.44;;;5.91;100.00
54872;BME280;43914;57.680;11.982;2024-03-23T09:35:08;98904.49;;;5.84;100.00
54872;BME280;43914;57.680;11.982;2024-03-23T09:37:34;98910.64;;;5.82;100.00
54872;BME280;43914;57.680;11.982;2024-03-23T09:39:59;98910.96;;;5.79;100.00
54872;BME280;43914;57.680;11.982;2024-03-23T09:42:24;98910.53;;;5.76;100.00
54872;BME280;43914;57.680;11.982;2024-03-23T09:44:51;98908.83;;;5.79;100.00
54872;BME280;43914;57.680;11.982;2024-03-23T09:47:17;98910.77;;;5.82;100.00
54872;BME280;43914;57.680;11.982;2024-03-23T09:49:42;98913.49;;;5.78;100.00
54872;BME280;43914;57.680;11.982;2024-03-23T09:52:08;98913.36;;;5.77;100.00
54872;BME280;43914;57.680;11.982;2024-03-23T09:54:34;98915.27;;;5.70;100.00
54872;BME280;43914;57.680;11.982;2024-03-23T09:56:59;98913.21;;;5.70;100.00
54872;BME280;43914;57.680;11.982;2024-03-23T09:59:25;98914.95;;;5.75;100.00
54872;BME280;43914;57.680;11.982;2024-03-23T10:01:53;98915.60;;;5.76;100.00
54872;BME280;43914;57.680;11.982;2024-03-23T10:04:41;98911.70;;;5.72;100.00
54872;BME280;43914;57.680;11.982;2024-03-23T10:07:26;98912.44;;;5.73;100.00
54872;BME280;43914;57.680;11.982;2024-03-23T10:09:54;98909.36;;;5.71;100.00
54872;BME280;43914;57.680;11.982;2024-03-23T10:12:20;98907.71;;;5.64;100.00
54872;BME280;43914;57.680;11.982;2024-03-23T10:14:46;98905.13;;;5.61;100.00
54872;BME280;43914;57.680;11.982;2024-03-23T10:19:49;98899.16;;;5.47;100.00
54872;BME280;43914;57.680;11.982;2024-03-23T10:22:18;98902.70;;;5.45;100.00
54872;BME280;43914;57.680;11.982;2024-03-23T10:24:44;98906.52;;;5.54;100.00
54872;BME280;43914;57.680;11.982;2024-03-23T10:27:15;98906.63;;;5.67;100.00
54872;BME280;43914;57.680;11.982;2024-03-23T10:29:41;98902.29;;;5.76;100.00
54872;BME280;43914;57.680;11.982;2024-03-23T10:32:10;98903.88;;;5.82;100.00
54872;BME280;43914;57.680;11.982;2024-03-23T10:34:40;98902.62;;;5.86;100.00
54872;BME280;43914;57.680;11.982;2024-03-23T10:37:06;98893.34;;;5.85;100.00
54872;BME280;43914;57.680;11.982;2024-03-23T10:39:37;98894.04;;;5.86;100.00
54872;BME280;43914;57.680;11.982;2024-03-23T10:42:05;98892.02;;;5.94;100.00
54872;BME280;43914;57.680;11.982;2024-03-23T10:44:31;98891.23;;;6.00;100.00
54872;BME280;43914;57.680;11.982;2024-03-23T10:47:06;98892.52;;;6.08;100.00
54872;BME280;43914;57.680;11.982;2024-03-23T10:49:33;98890.16;;;6.21;100.00
54872;BME280;43914;57.680;11.982;2024-03-23T10:52:00;98883.21;;;6.40;100.00
54872;BME280;43914;57.680;11.982;2024-03-23T10:54:26;98875.59;;;6.61;100.00
54872;BME280;43914;57.680;11.982;2024-03-23T10:59:29;98870.52;;;6.76;100.00
54872;BME280;43914;57.680;11.982;2024-03-23T11:01:58;98875.15;;;6.84;100.00
54872;BME280;43914;57.680;11.982;2024-03-23T11:06:57;98871.11;;;6.92;100.00
54872;BME280;43914;57.680;11.982;2024-03-23T11:14:52;98862.80;;;6.76;100.00
54872;BME280;43914;57.680;11.982;2024-03-23T11:17:23;98864.42;;;6.70;100.00
54872;BME280;43914;57.680;11.982;2024-03-23T11:19:58;98862.25;;;6.72;100.00
54872;BME280;43914;57.680;11.982;2024-03-23T11:22:43;98860.36;;;6.69;100.00
54872;BME280;43914;57.680;11.982;2024-03-23T11:25:16;98858.34;;;6.65;100.00
54872;BME280;43914;57.680;11.982;2024-03-23T11:27:43;98856.25;;;6.68;100.00
54872;BME280;43914;57.680;11.982;2024-03-23T11:32:39;98857.91;;;6.77;100.00
54872;BME280;43914;57.680;11.982;2024-03-23T11:35:06;98858.70;;;6.92;100.00
54872;BME280;43914;57.680;11.982;2024-03-23T11:37:31;98859.84;;;7.01;100.00
54872;BME280;43914;57.680;11.982;2024-03-23T11:39:57;98849.77;;;7.08;100.00
54872;BME280;43914;57.680;11.982;2024-03-23T11:42:22;98850.46;;;7.10;100.00
54872;BME280;43914;57.680;11.982;2024-03-23T11:44:48;98848.52;;;7.17;100.00
54872;BME280;43914;57.680;11.982;2024-03-23T11:47:13;98841.96;;;7.23;100.00
54872;BME280;43914;57.680;11.982;2024-03-23T11:49:39;98838.71;;;7.27;100.00
54872;BME280;43914;57.680;11.982;2024-03-23T11:52:07;98834.00;;;7.36;100.00
54872;BME280;43914;57.680;11.982;2024-03-23T11:54:32;98830.02;;;7.42;100.00
54872;BME280;43914;57.680;11.982;2024-03-23T11:57:04;98829.02;;;7.41;100.00
54872;BME280;43914;57.680;11.982;2024-03-23T11:59:40;98829.50;;;7.41;100.00
54872;BME280;43914;57.680;11.982;2024-03-23T12:02:11;98828.28;;;7.45;100.00
54872;BME280;43914;57.680;11.982;2024-03-23T12:04:37;98824.76;;;7.43;100.00
54872;BME280;43914;57.680;11.982;2024-03-23T12:07:13;98826.77;;;7.35;100.00
54872;BME280;43914;57.680;11.982;2024-03-23T12:09:40;98828.60;;;7.25;100.00
54872;BME280;43914;57.680;11.982;2024-03-23T12:12:17;98826.15;;;7.17;100.00
54872;BME280;43914;57.680;11.982;2024-03-23T12:14:44;98824.84;;;7.15;100.00
54872;BME280;43914;57.680;11.982;2024-03-23T12:17:14;98825.02;;;7.15;100.00
54872;BME280;43914;57.680;11.982;2024-03-23T12:19:41;98829.36;;;7.21;100.00
54872;BME280;43914;57.680;11.982;2024-03-23T12:22:08;98819.31;;;7.26;100.00
54872;BME280;43914;57.680;11.982;2024-03-23T12:24:34;98816.39;;;7.26;100.00
54872;BME280;43914;57.680;11.982;2024-03-23T12:27:04;98807.97;;;7.25;100.00
54872;BME280;43914;57.680;11.982;2024-03-23T12:29:31;98814.48;;;7.31;100.00
54872;BME280;43914;57.680;11.982;2024-03-23T12:32:02;98810.48;;;7.34;100.00
54872;BME280;43914;57.680;11.982;2024-03-23T12:34:28;98808.89;;;7.33;100.00
54872;BME280;43914;57.680;11.982;2024-03-23T12:36:55;98804.08;;;7.34;100.00
54872;BME280;43914;57.680;11.982;2024-03-23T12:39:20;98801.52;;;7.40;100.00
54872;BME280;43914;57.680;11.982;2024-03-23T12:41:47;98802.21;;;7.48;100.00
54872;BME280;43914;57.680;11.982;2024-03-23T12:44:13;98797.41;;;7.54;100.00
54872;BME280;43914;57.680;11.982;2024-03-23T12:46:41;98796.63;;;7.55;100.00
54872;BME280;43914;57.680;11.982;2024-03-23T12:49:06;98795.79;;;7.49;100.00
54872;BME280;43914;57.680;11.982;2024-03-23T12:51:32;98794.59;;;7.42;100.00
54872;BME280;43914;57.680;11.982;2024-03-23T12:53:58;98794.84;;;7.34;100.00
54872;BME280;43914;57.680;11.982;2024-03-23T12:56:24;98800.52;;;7.26;100.00
54872;BME280;43914;57.680;11.982;2024-03-23T12:58:49;98798.98;;;7.17;100.00
54872;BME280;43914;57.680;11.982;2024-03-23T13:01:17;98796.30;;;7.11;100.00
54872;BME280;43914;57.680;11.982;2024-03-23T13:03:49;98790.23;;;7.06;100.00
54872;BME280;43914;57.680;11.982;2024-03-23T13:06:15;98788.59;;;7.05;100.00
54872;BME280;43914;57.680;11.982;2024-03-23T13:08:41;98785.30;;;7.07;100.00
54872;BME280;43914;57.680;11.982;2024-03-23T13:11:08;98788.41;;;7.10;100.00
54872;BME280;43914;57.680;11.982;2024-03-23T13:13:37;98792.17;;;7.13;100.00
54872;BME280;43914;57.680;11.982;2024-03-23T13:16:04;98790.36;;;7.14;100.00
54872;BME280;43914;57.680;11.982;2024-03-23T13:18:31;98784.73;;;7.19;100.00
54872;BME280;43914;57.680;11.982;2024-03-23T13:20:58;98783.90;;;7.31;100.00
54872;BME280;43914;57.680;11.982;2024-03-23T13:23:24;98784.82;;;7.50;100.00
54872;BME280;43914;57.680;11.982;2024-03-23T13:25:54;98781.89;;;7.65;100.00
54872;BME280;43914;57.680;11.982;2024-03-23T13:28:21;98782.31;;;7.93;100.00
54872;BME280;43914;57.680;11.982;2024-03-23T13:30:54;98778.77;;;8.18;100.00
54872;BME280;43914;57.680;11.982;2024-03-23T13:33:20;98774.08;;;8.38;100.00
54872;BME280;43914;57.680;11.982;2024-03-23T13:35:53;98768.30;;;8.58;100.00
54872;BME280;43914;57.680;11.982;2024-03-23T13:38:19;98765.02;;;8.74;100.00
54872;BME280;43914;57.680;11.982;2024-03-23T13:40:58;98766.19;;;8.69;100.00
54872;BME280;43914;57.680;11.982;2024-03-23T13:43:24;98764.23;;;8.73;100.00
54872;BME280;43914;57.680;11.982;2024-03-23T13:45:55;98762.67;;;8.93;100.00
54872;BME280;43914;57.680;11.982;2024-03-23T13:48:22;98759.22;;;9.08;100.00
54872;BME280;43914;57.680;11.982;2024-03-23T13:50:58;98760.57;;;9.16;100.00
54872;BME280;43914;57.680;11.982;2024-03-23T13:53:24;98761.55;;;9.34;100.00
54872;BME280;43914;57.680;11.982;2024-03-23T13:55:50;98765.13;;;9.53;100.00
54872;BME280;43914;57.680;11.982;2024-03-23T13:58:15;98762.61;;;9.55;100.00
54872;BME280;43914;57.680;11.982;2024-03-23T14:00:43;98764.49;;;9.50;100.00